Log in

Login to your account

Username *
Password *
Remember Me
User Registration
User Profile
(optional)
Cancel

Nous contacter

 Téléphone : +33 (0)4 79 54 41 81

Coordonnées détaillées et accès : cliquez ici

 
LFLB °C
    Ferienhaus Ostsee
[source: ADDS]
METAR
LFLB 181430Z AUTO 36004KT 310V040 9999 FEW070 31/18 Q1015 TEMPO VRB15G25KT FEW080CB =
TAF LFLB 181400Z 1815/1915 18007KT CAVOK PROB30 TEMPO 1815/1819 VRB15G25KT FEW080CB BECMG 1820/1823 VRB02KT
TAF
TAF LFLB 181400Z 1815/1915 18007KT CAVOK PROB30 TEMPO 1815/1819 VRB15G25KT FEW080CB BECMG 1820/1823 VRB02KT =
SR / SS: 03:46 / 19:28 UTC (Lever/Coucher du soleil le 2021-06-18)
JSN Boot template designed by JoomlaShine.com